createdAt,value
2018-02-12T00:00:50.763Z,100283.57
2018-02-12T00:05:45.062Z,100294.09
2018-02-12T00:10:39.394Z,100296.42
2018-02-12T00:15:33.644Z,100308.30
2018-02-12T00:20:28.713Z,100303.18
2018-02-12T00:25:23.013Z,100302.06
2018-02-12T00:30:17.277Z,100308.12
2018-02-12T00:35:12.315Z,100318.48
2018-02-12T00:40:06.615Z,100324.61
2018-02-12T00:45:00.878Z,100325.97
2018-02-12T00:49:56.075Z,100334.63
2018-02-12T00:54:50.374Z,100339.31
2018-02-12T00:59:44.850Z,100340.89
2018-02-12T01:04:39.273Z,100346.02
2018-02-12T01:09:33.769Z,100355.13
2018-02-12T01:14:28.029Z,100353.05
2018-02-12T01:19:23.082Z,100361.40
2018-02-12T01:24:17.355Z,100362.70
2018-02-12T01:29:11.646Z,100364.98
2018-02-12T01:34:06.799Z,100365.48
2018-02-12T01:39:01.146Z,100372.28
2018-02-12T01:43:55.606Z,100380.73
2018-02-12T01:48:49.859Z,100374.74
2018-02-12T01:53:44.916Z,100384.33
2018-02-12T01:58:39.209Z,100387.09
2018-02-12T02:03:33.457Z,100387.20
2018-02-12T02:08:28.510Z,100397.83
2018-02-12T02:13:23.570Z,100401.25
2018-02-12T02:18:17.838Z,100402.52
2018-02-12T02:23:12.151Z,100412.16
2018-02-12T02:28:06.425Z,100414.71
2018-02-12T02:33:01.468Z,100410.02
2018-02-12T02:37:56.086Z,100408.66
2018-02-12T02:42:50.354Z,100421.26
2018-02-12T02:47:45.648Z,100416.36
2018-02-12T02:52:40.942Z,100418.88
2018-02-12T02:57:35.209Z,100416.89
2018-02-12T03:02:29.489Z,100416.66
2018-02-12T03:07:24.785Z,100416.05
2018-02-12T03:12:19.054Z,100418.38
2018-02-12T03:17:13.503Z,100425.68
2018-02-12T03:22:09.866Z,100434.34
2018-02-12T03:27:04.918Z,100446.84
2018-02-12T03:31:59.261Z,100452.34
2018-02-12T03:36:53.565Z,100458.73
2018-02-12T03:41:47.841Z,100456.98
2018-02-12T03:46:41.935Z,100465.27
2018-02-12T03:51:36.214Z,100477.42
2018-02-12T03:56:30.608Z,100478.15
2018-02-12T04:01:24.879Z,100481.09
2018-02-12T04:06:19.284Z,100494.66
2018-02-12T04:20:36.818Z,100506.77
2018-02-12T04:25:31.100Z,100504.55
2018-02-12T04:30:26.181Z,100512.40
2018-02-12T04:35:20.472Z,100516.75
2018-02-12T04:40:14.752Z,100524.59
2018-02-12T04:45:09.047Z,100531.19
2018-02-12T04:50:03.526Z,100530.30
2018-02-12T04:54:58.728Z,100539.46
2018-02-12T04:59:53.018Z,100541.20
2018-02-12T05:04:47.307Z,100547.39
2018-02-12T05:09:41.794Z,100545.66
2018-02-12T05:14:36.060Z,100554.42
2018-02-12T05:19:31.110Z,100554.91
2018-02-12T05:24:25.418Z,100555.05
2018-02-12T05:29:19.684Z,100562.41
2018-02-12T05:34:13.979Z,100563.72
2018-02-12T05:39:09.035Z,100564.11
2018-02-12T05:44:03.580Z,100573.88
2018-02-12T05:48:57.856Z,100583.49
2018-02-12T05:53:52.158Z,100589.81
2018-02-12T05:58:46.423Z,100607.31
2018-02-12T06:03:40.704Z,100606.02
2018-02-12T06:08:35.744Z,100608.62
2018-02-12T06:13:30.049Z,100615.59
2018-02-12T06:18:24.498Z,100620.34
2018-02-12T06:23:19.566Z,100625.00
2018-02-12T06:28:13.874Z,100629.84
2018-02-12T06:33:08.165Z,100649.40
2018-02-12T06:38:02.465Z,100658.45
2018-02-12T06:42:56.813Z,100661.28
2018-02-12T06:47:51.099Z,100667.30
2018-02-12T06:52:45.380Z,100680.69
2018-02-12T06:57:39.689Z,100687.70
2018-02-12T07:02:33.983Z,100698.27
2018-02-12T07:07:28.367Z,100708.13
2018-02-12T07:12:22.679Z,100713.37
2018-02-12T07:17:17.102Z,100715.55
2018-02-12T07:22:11.531Z,100727.86
2018-02-12T07:27:06.628Z,100739.38
2018-02-12T07:32:00.735Z,100742.86
2018-02-12T07:36:55.408Z,100739.80
2018-02-12T07:41:49.808Z,100746.35
2018-02-12T07:46:44.112Z,100748.66
2018-02-12T07:51:38.444Z,100754.02
2018-02-12T07:56:32.762Z,100761.17
2018-02-12T08:01:27.850Z,100768.36
2018-02-12T08:06:22.179Z,100776.17
2018-02-12T08:11:16.451Z,100781.31
2018-02-12T08:16:10.757Z,100789.78
2018-02-12T08:21:05.038Z,100799.09
2018-02-12T08:25:59.410Z,100805.23
2018-02-12T08:30:54.456Z,100810.16
2018-02-12T08:35:48.917Z,100812.59
2018-02-12T08:40:43.228Z,100818.90
2018-02-12T08:45:38.281Z,100830.09
2018-02-12T08:50:32.594Z,100835.98
2018-02-12T08:55:26.840Z,100844.20
2018-02-12T09:00:21.794Z,100854.88
2018-02-12T09:05:16.408Z,100860.72
2018-02-12T09:10:10.715Z,100867.01
2018-02-12T09:15:05.140Z,100875.42
2018-02-12T09:19:59.643Z,100883.30
2018-02-12T09:24:53.921Z,100875.23
2018-02-12T09:29:48.333Z,100878.84
2018-02-12T09:34:42.694Z,100884.31
2018-02-12T09:39:37.899Z,100892.84
2018-02-12T09:44:32.961Z,100896.56
2018-02-12T09:49:27.311Z,100893.02
2018-02-12T09:54:21.691Z,100914.57
2018-02-12T09:59:16.952Z,100915.47
2018-02-12T10:04:12.011Z,100923.91
2018-02-12T10:09:06.060Z,100929.03
2018-02-12T10:14:01.120Z,100934.77
2018-02-12T10:18:55.389Z,100940.35
2018-02-12T10:23:50.468Z,100957.31
2018-02-12T10:28:44.764Z,100957.08
2018-02-12T10:33:39.125Z,100961.41
2018-02-12T10:38:33.439Z,100968.25
2018-02-12T10:43:27.764Z,100972.70
2018-02-12T10:48:22.039Z,100969.14
2018-02-12T10:53:16.337Z,100978.86
2018-02-12T10:58:10.645Z,100974.91
2018-02-12T11:03:05.091Z,100986.54
2018-02-12T11:07:59.553Z,100984.73
2018-02-12T11:12:53.928Z,100980.22
2018-02-12T11:17:48.987Z,100986.98
2018-02-12T11:22:43.423Z,100992.26
2018-02-12T11:27:37.739Z,100996.45
2018-02-12T11:32:32.810Z,100999.31
2018-02-12T11:37:27.124Z,100999.56
2018-02-12T11:42:21.484Z,100999.58
2018-02-12T11:47:15.994Z,101004.00
2018-02-12T11:52:10.446Z,101002.33
2018-02-12T11:57:04.826Z,101005.22
2018-02-12T12:01:59.114Z,101010.79
2018-02-12T12:06:53.409Z,101007.53
2018-02-12T12:11:47.697Z,101007.55
2018-02-12T12:16:41.792Z,101009.69
2018-02-12T12:21:36.068Z,101009.00
2018-02-12T12:26:31.206Z,101008.43
2018-02-12T12:31:26.257Z,101015.09
2018-02-12T12:36:20.676Z,101010.89
2018-02-12T12:41:14.950Z,101012.17
2018-02-12T12:46:09.273Z,101015.42
2018-02-12T12:51:03.696Z,101016.75
2018-02-12T12:55:58.038Z,101002.69
2018-02-12T13:00:53.083Z,101010.36
2018-02-12T13:05:47.387Z,101002.65
2018-02-12T13:10:41.693Z,101013.48
2018-02-12T13:15:36.036Z,101016.83
2018-02-12T13:20:30.422Z,101023.17
2018-02-12T13:25:24.708Z,101019.32
2018-02-12T13:30:18.993Z,101012.44
2018-02-12T13:35:13.289Z,101010.59
2018-02-12T13:40:07.629Z,101015.24
2018-02-12T13:45:02.205Z,101014.77
2018-02-12T13:49:56.506Z,101013.47
2018-02-12T13:54:50.986Z,101015.80
2018-02-12T13:59:45.323Z,101013.91
2018-02-12T14:04:39.616Z,101013.70
2018-02-12T14:09:33.998Z,101018.86
2018-02-12T14:14:28.604Z,101014.59
2018-02-12T14:19:22.898Z,101014.92
2018-02-12T14:24:17.685Z,101021.29
2018-02-12T14:29:12.999Z,101014.56
2018-02-12T14:34:07.285Z,101028.24
2018-02-12T14:39:01.752Z,101041.20
2018-02-12T14:43:56.656Z,101038.25
2018-02-12T14:48:51.841Z,101061.14
2018-02-12T14:53:47.217Z,101093.20
2018-02-12T14:58:41.656Z,101121.55
2018-02-12T15:03:36.187Z,101133.26
2018-02-12T15:08:31.288Z,101112.39
2018-02-12T15:13:25.604Z,101117.98
2018-02-12T15:18:20.661Z,101109.64
2018-02-12T15:23:15.668Z,101108.64
2018-02-12T15:28:10.095Z,101103.17
2018-02-12T15:33:04.399Z,101100.33
2018-02-12T15:37:58.695Z,101113.31
2018-02-12T15:42:53.499Z,101104.70
2018-02-12T15:47:48.160Z,101114.77
2018-02-12T15:52:43.275Z,101115.28
2018-02-12T15:57:38.754Z,101116.70
2018-02-12T16:02:33.349Z,101111.05
2018-02-12T16:07:28.076Z,101114.58
2018-02-12T16:12:22.355Z,101121.39
2018-02-12T16:17:16.672Z,101121.96
2018-02-12T16:22:10.953Z,101124.02
2018-02-12T16:27:05.588Z,101122.34
2018-02-12T16:32:00.157Z,101125.49
2018-02-12T16:36:55.466Z,101131.75
2018-02-12T16:41:50.526Z,101127.48
2018-02-12T16:46:44.813Z,101128.86
2018-02-12T16:51:39.860Z,101130.95
2018-02-12T16:56:34.130Z,101133.51
2018-02-12T17:01:29.195Z,101145.61
2018-02-12T17:06:23.703Z,101145.45
2018-02-12T17:11:18.319Z,101148.78
2018-02-12T17:16:12.597Z,101154.25
2018-02-12T17:21:06.870Z,101155.70
2018-02-12T17:26:01.146Z,101154.53
2018-02-12T17:30:56.187Z,101159.09
2018-02-12T17:35:50.742Z,101161.77
2018-02-12T17:40:45.004Z,101164.96
2018-02-12T17:45:39.318Z,101169.39
2018-02-12T17:50:33.872Z,101174.74
2018-02-12T17:55:28.916Z,101174.33
2018-02-12T18:00:23.188Z,101177.02
2018-02-12T18:05:18.324Z,101180.58
2018-02-12T18:10:12.564Z,101181.48
2018-02-12T18:15:06.850Z,101182.44
2018-02-12T18:20:01.278Z,101185.05
2018-02-12T18:24:55.674Z,101182.02
2018-02-12T18:29:49.967Z,101191.17
2018-02-12T18:34:44.869Z,101193.41
2018-02-12T18:39:39.285Z,101188.22
2018-02-12T18:44:33.680Z,101190.82
2018-02-12T18:49:27.954Z,101189.03
2018-02-12T18:54:23.000Z,101198.22
2018-02-12T18:59:17.439Z,101201.77
2018-02-12T19:04:11.726Z,101204.00
2018-02-12T19:09:05.751Z,101203.22
2018-02-12T19:14:00.797Z,101204.19
2018-02-12T19:18:55.184Z,101211.64
2018-02-12T19:23:50.241Z,101207.75
2018-02-12T19:28:44.564Z,101211.27
2018-02-12T19:33:38.840Z,101216.55
2018-02-12T19:38:33.178Z,101211.35
2018-02-12T19:43:27.450Z,101213.94
2018-02-12T19:48:21.758Z,101217.02
2018-02-12T19:53:16.031Z,101219.64
2018-02-12T19:58:10.407Z,101224.92
2018-02-12T20:03:05.491Z,101218.47
2018-02-12T20:07:59.795Z,101220.23
2018-02-12T20:12:54.372Z,101215.95
2018-02-12T20:17:48.686Z,101216.41
2018-02-12T20:22:43.037Z,101221.19
2018-02-12T20:27:38.414Z,101224.27
2018-02-12T20:32:33.101Z,101219.48
2018-02-12T20:37:27.590Z,101228.24
2018-02-12T20:42:21.888Z,101229.66
2018-02-12T20:47:17.044Z,101234.54
2018-02-12T20:52:11.401Z,101234.22
2018-02-12T20:57:07.545Z,101234.30
2018-02-12T21:02:02.249Z,101233.52
2018-02-12T21:06:57.413Z,101232.70
2018-02-12T21:11:51.800Z,101236.21
2018-02-12T21:16:46.080Z,101238.03
2018-02-12T21:21:41.216Z,101238.08
2018-02-12T21:26:36.525Z,101237.66
2018-02-12T21:31:31.222Z,101227.73
2018-02-12T21:36:26.344Z,101229.92
2018-02-12T21:41:21.404Z,101231.67
2018-02-12T21:46:15.687Z,101230.84
2018-02-12T21:51:10.059Z,101232.62
2018-02-12T21:56:05.250Z,101235.66
2018-02-12T22:00:59.626Z,101239.59
2018-02-12T22:05:53.774Z,101230.08
2018-02-12T22:10:48.035Z,101229.18
2018-02-12T22:15:42.454Z,101230.06
2018-02-12T22:20:36.714Z,101230.04
2018-02-12T22:25:31.147Z,101227.86
2018-02-12T22:30:25.454Z,101223.55
2018-02-12T22:35:20.914Z,101220.07
2018-02-12T22:40:16.782Z,101224.00
2018-02-12T22:45:11.063Z,101222.28
2018-02-12T22:50:05.412Z,101217.11
2018-02-12T22:54:59.916Z,101218.43
2018-02-12T22:59:54.226Z,101218.87
2018-02-12T23:04:48.524Z,101217.59
2018-02-12T23:09:42.812Z,101222.82
2018-02-12T23:14:37.557Z,101217.18
2018-02-12T23:19:32.844Z,101221.95
2018-02-12T23:24:27.441Z,101224.11
2018-02-12T23:29:21.768Z,101219.33
2018-02-12T23:34:16.052Z,101224.50
2018-02-12T23:39:10.357Z,101221.03
2018-02-12T23:44:04.767Z,101222.30
2018-02-12T23:48:59.078Z,101219.69
2018-02-12T23:53:53.476Z,101212.75
2018-02-12T23:58:47.766Z,101209.72
